Time;durP1;ratioP1;P1;durP2;ratioP2;P2;SDS_P1;SDS_P2;PMS_P1;PMS_P2;Temp;Humidity;BMP_temperature;BMP_pressure;BME280_temperature;BME280_humidity;BME280_pressure;Samples;Min_cycle;Max_cycle;Signal;HPM_P1;HPM_P2
2021/10/03 00:02:11;;;;;;;9.43;7.13;;;15.00;58.90;;;;;;5054624;28;20090;-63
2021/10/03 00:04:39;;;;;;;9.52;7.10;;;15.00;58.90;;;;;;5054020;28;20025;-64
2021/10/03 00:07:06;;;;;;;11.20;7.35;;;14.90;58.80;;;;;;5054096;28;20516;-63
2021/10/03 00:09:32;;;;;;;11.98;7.53;;;14.90;58.90;;;;;;5072174;28;20109;-63
2021/10/03 00:11:57;;;;;;;9.93;7.53;;;14.90;59.00;;;;;;5068376;28;20108;-63
2021/10/03 00:14:24;;;;;;;14.35;6.75;;;14.80;58.90;;;;;;5073338;28;20066;-63
2021/10/03 00:16:52;;;;;;;14.23;7.85;;;14.80;59.00;;;;;;5074094;28;20020;-63
2021/10/03 00:19:20;;;;;;;19.77;8.18;;;14.80;59.10;;;;;;5073509;28;20489;-63
2021/10/03 00:21:46;;;;;;;9.55;7.05;;;14.70;59.10;;;;;;5070666;28;20111;-64
2021/10/03 00:24:14;;;;;;;13.90;7.97;;;14.70;59.20;;;;;;5068066;28;20025;-63
2021/10/03 00:26:41;;;;;;;14.93;8.88;;;14.70;59.30;;;;;;5053757;28;20029;-64
2021/10/03 00:29:06;;;;;;;10.93;7.07;;;14.60;59.40;;;;;;5053572;28;20079;-64
2021/10/03 00:31:33;;;;;;;12.63;8.85;;;14.60;59.40;;;;;;5053569;28;20032;-64
2021/10/03 00:33:59;;;;;;;12.75;8.18;;;14.60;59.80;;;;;;5053563;28;20029;-65
2021/10/03 00:36:25;;;;;;;10.52;8.40;;;14.60;59.90;;;;;;5053630;28;20017;-64
2021/10/03 00:38:51;;;;;;;10.75;7.65;;;14.50;59.90;;;;;;5053176;28;20359;-61
2021/10/03 00:41:17;;;;;;;12.60;8.57;;;14.50;59.80;;;;;;5050843;28;20028;-62
2021/10/03 00:43:43;;;;;;;12.43;8.60;;;14.50;60.00;;;;;;5053321;28;20033;-62
2021/10/03 00:46:09;;;;;;;13.98;8.43;;;14.50;60.70;;;;;;5053783;28;20061;-63
2021/10/03 00:48:34;;;;;;;12.88;7.85;;;14.40;60.20;;;;;;5053299;28;20029;-62
2021/10/03 00:51:00;;;;;;;11.75;7.63;;;14.40;60.30;;;;;;5053150;28;20029;-63
2021/10/03 00:53:29;;;;;;;12.88;8.20;;;14.40;60.30;;;;;;5051872;28;20029;-64
2021/10/03 00:55:56;;;;;;;10.45;7.03;;;14.40;60.30;;;;;;5053298;28;20044;-63
2021/10/03 00:58:22;;;;;;;17.08;8.95;;;14.30;60.20;;;;;;5053149;28;20482;-63
2021/10/03 01:00:49;;;;;;;15.52;8.20;;;14.30;60.60;;;;;;5054512;28;20134;-63
2021/10/03 01:03:16;;;;;;;15.75;8.57;;;14.30;61.50;;;;;;5053144;28;20041;-64
2021/10/03 01:05:42;;;;;;;13.68;8.20;;;14.30;60.90;;;;;;5053239;28;20017;-63
2021/10/03 01:08:08;;;;;;;12.13;8.35;;;14.30;61.00;;;;;;5057880;28;20055;-63
2021/10/03 01:10:34;;;;;;;13.55;8.25;;;14.20;61.00;;;;;;5052802;28;20025;-62
2021/10/03 01:13:08;;;;;;;13.10;8.90;;;14.20;61.20;;;;;;5073088;28;20059;-63
2021/10/03 01:15:38;;;;;;;12.25;8.95;;;14.20;61.40;;;;;;5073149;28;20508;-63
2021/10/03 01:18:05;;;;;;;12.07;8.18;;;14.20;61.30;;;;;;5067337;28;20033;-63
2021/10/03 01:20:32;;;;;;;12.07;8.45;;;14.10;61.20;;;;;;5052656;28;20082;-63
2021/10/03 01:23:03;;;;;;;13.30;9.50;;;14.10;61.30;;;;;;5053463;28;21320;-62
2021/10/03 01:25:30;;;;;;;19.75;9.43;;;14.10;61.50;;;;;;5071930;28;20055;-63
2021/10/03 01:27:56;;;;;;;15.07;9.10;;;14.10;61.50;;;;;;5052760;28;20561;-63
2021/10/03 01:30:23;;;;;;;12.77;9.25;;;14.00;61.40;;;;;;5061134;28;20116;-62
2021/10/03 01:32:49;;;;;;;12.38;8.52;;;14.00;61.60;;;;;;5056010;28;20431;-63
2021/10/03 01:35:19;;;;;;;13.13;9.45;;;14.00;61.60;;;;;;5050815;28;20124;-63
2021/10/03 01:37:49;;;;;;;11.75;8.38;;;14.00;61.80;;;;;;5052204;28;21417;-63
2021/10/03 01:40:16;;;;;;;13.63;9.55;;;14.00;61.90;;;;;;5051949;28;20032;-64
2021/10/03 01:42:42;;;;;;;15.90;8.02;;;13.90;61.90;;;;;;5071908;28;20051;-63
2021/10/03 01:45:11;;;;;;;14.82;8.40;;;13.90;62.10;;;;;;5069296;28;20533;-63
2021/10/03 01:48:14;;;;;;;16.00;7.90;;;13.90;62.10;;;;;;5052199;28;20051;-62
2021/10/03 01:50:58;;;;;;;20.05;7.32;;;13.80;62.00;;;;;;5051975;28;20132;-63
2021/10/03 01:53:27;;;;;;;12.10;7.07;;;13.80;61.90;;;;;;5052071;28;20400;-62
2021/10/03 01:55:54;;;;;;;12.77;8.30;;;13.80;61.70;;;;;;5052132;28;20032;-63
2021/10/03 01:58:24;;;;;;;12.90;8.05;;;13.80;61.80;;;;;;5051859;28;20032;-63
2021/10/03 02:00:53;;;;;;;11.35;7.65;;;13.80;61.90;;;;;;5051967;28;20437;-64
2021/10/03 02:03:19;;;;;;;10.43;7.68;;;13.70;62.10;;;;;;5051678;28;20102;-63
2021/10/03 02:05:47;;;;;;;11.25;7.47;;;13.70;62.00;;;;;;5051639;28;20475;-62
2021/10/03 02:08:13;;;;;;;11.80;7.80;;;13.70;62.00;;;;;;5051579;28;20033;-63
2021/10/03 02:10:41;;;;;;;15.85;8.27;;;13.70;62.20;;;;;;5051400;28;20390;-63
2021/10/03 02:13:08;;;;;;;14.93;7.97;;;13.60;62.30;;;;;;5051527;28;20028;-64
2021/10/03 02:15:35;;;;;;;12.00;7.97;;;13.60;62.30;;;;;;5051332;28;20037;-63
2021/10/03 02:18:08;;;;;;;12.52;8.52;;;13.60;62.30;;;;;;5051240;28;20386;-62
2021/10/03 02:20:35;;;;;;;10.25;7.80;;;13.60;62.30;;;;;;5054246;28;20021;-63
2021/10/03 02:23:03;;;;;;;10.15;7.00;;;13.60;62.20;;;;;;5052067;28;20103;-63
2021/10/03 02:25:29;;;;;;;13.07;7.22;;;13.60;62.30;;;;;;5051490;28;20079;-63
2021/10/03 02:27:55;;;;;;;10.52;7.43;;;13.50;62.20;;;;;;5051252;28;20047;-63
2021/10/03 02:30:21;;;;;;;18.10;8.55;;;13.50;62.30;;;;;;5051158;28;20033;-63
2021/10/03 02:32:47;;;;;;;13.65;8.65;;;13.50;62.40;;;;;;5051362;28;20032;-62
2021/10/03 02:35:13;;;;;;;17.45;9.40;;;13.50;62.60;;;;;;5051240;28;20100;-62
2021/10/03 02:37:41;;;;;;;14.70;9.18;;;13.50;62.70;;;;;;5051007;28;20025;-63
2021/10/03 02:40:11;;;;;;;12.73;8.45;;;13.50;62.70;;;;;;5050895;28;20052;-63
2021/10/03 02:42:38;;;;;;;14.65;8.70;;;13.40;62.60;;;;;;5051110;28;20584;-62
2021/10/03 02:45:07;;;;;;;15.48;9.15;;;13.40;62.80;;;;;;5051120;28;20024;-63
2021/10/03 02:47:34;;;;;;;12.18;8.07;;;13.40;62.70;;;;;;5052373;28;20413;-63
2021/10/03 02:49:59;;;;;;;13.98;8.30;;;13.40;62.70;;;;;;5071097;28;20033;-63
2021/10/03 02:52:26;;;;;;;11.43;7.55;;;13.40;62.70;;;;;;5070334;28;20013;-63
2021/10/03 02:54:51;;;;;;;13.85;8.07;;;13.40;62.80;;;;;;5070634;28;20363;-62
2021/10/03 02:57:17;;;;;;;11.82;8.68;;;13.40;62.80;;;;;;5070612;28;20035;-63
2021/10/03 02:59:43;;;;;;;13.40;8.52;;;13.30;62.80;;;;;;5070531;28;20116;-63
2021/10/03 03:02:09;;;;;;;11.60;8.63;;;13.30;62.90;;;;;;5053255;28;20056;-62
2021/10/03 03:04:35;;;;;;;14.02;8.23;;;13.30;63.00;;;;;;5050308;28;20048;-63
2021/10/03 03:07:00;;;;;;;20.92;13.05;;;13.30;63.00;;;;;;5049574;28;20119;-63
2021/10/03 03:09:26;;;;;;;21.25;13.30;;;13.30;63.60;;;;;;5050318;28;20063;-63
2021/10/03 03:11:52;;;;;;;18.52;12.57;;;13.30;64.10;;;;;;5050909;28;20033;-63
2021/10/03 03:14:18;;;;;;;27.60;12.35;;;13.30;64.10;;;;;;5050696;28;20029;-62
2021/10/03 03:16:49;;;;;;;14.00;10.13;;;13.30;64.20;;;;;;5050721;28;20098;-63
2021/10/03 03:19:15;;;;;;;17.60;11.73;;;13.30;64.10;;;;;;5049200;28;20424;-63
2021/10/03 03:21:41;;;;;;;21.13;12.05;;;13.30;64.10;;;;;;5062817;28;20020;-63
2021/10/03 03:24:07;;;;;;;22.48;12.95;;;13.30;64.10;;;;;;5070409;28;20028;-64
2021/10/03 03:26:34;;;;;;;16.75;10.40;;;13.30;64.00;;;;;;5070828;28;20025;-63
2021/10/03 03:29:01;;;;;;;17.05;9.48;;;13.30;63.90;;;;;;5070385;28;20029;-63
2021/10/03 03:31:26;;;;;;;14.55;9.50;;;13.20;63.80;;;;;;5059373;28;20032;-63
2021/10/03 03:33:53;;;;;;;18.15;9.65;;;13.20;63.80;;;;;;5050663;28;20037;-63
2021/10/03 03:36:19;;;;;;;13.82;9.73;;;13.20;63.80;;;;;;5050531;28;20033;-62
2021/10/03 03:38:46;;;;;;;18.13;10.93;;;13.20;64.70;;;;;;5050228;28;20117;-62
2021/10/03 03:41:13;;;;;;;18.75;11.57;;;13.20;64.00;;;;;;5050590;28;20091;-62
2021/10/03 03:43:40;;;;;;;18.90;11.65;;;13.20;64.40;;;;;;5054253;28;20104;-63
2021/10/03 03:46:06;;;;;;;16.63;10.82;;;13.20;64.70;;;;;;5059196;28;20020;-63
2021/10/03 03:48:32;;;;;;;18.40;9.95;;;13.10;64.50;;;;;;5070087;28;20028;-62
2021/10/03 03:50:58;;;;;;;23.30;10.88;;;13.10;64.50;;;;;;5070130;28;20033;-63
2021/10/03 03:53:24;;;;;;;17.58;11.63;;;13.10;64.30;;;;;;5070022;28;20029;-63
2021/10/03 03:55:50;;;;;;;17.38;11.38;;;13.10;64.40;;;;;;5070030;28;20024;-63
2021/10/03 03:58:16;;;;;;;17.02;11.23;;;13.10;64.40;;;;;;5070009;28;20036;-62
2021/10/03 04:00:42;;;;;;;20.52;13.18;;;13.10;64.40;;;;;;5065449;28;20075;-63
2021/10/03 04:03:07;;;;;;;18.63;11.35;;;13.10;64.50;;;;;;5050138;28;20151;-62
2021/10/03 04:05:33;;;;;;;17.10;10.90;;;13.00;64.50;;;;;;5050260;28;20108;-63
2021/10/03 04:07:59;;;;;;;19.85;12.88;;;13.00;64.30;;;;;;5056879;28;20036;-62
2021/10/03 04:10:25;;;;;;;17.42;11.23;;;13.00;65.30;;;;;;5053073;28;20439;-62
2021/10/03 04:12:51;;;;;;;21.35;12.20;;;13.00;64.50;;;;;;5050275;28;20029;-63
2021/10/03 04:15:16;;;;;;;17.75;12.43;;;13.00;64.60;;;;;;5050821;28;20052;-62
2021/10/03 04:17:42;;;;;;;18.83;11.43;;;13.00;64.60;;;;;;5056266;28;20044;-63
2021/10/03 04:20:09;;;;;;;18.90;11.70;;;12.90;64.50;;;;;;5055022;28;20040;-63
2021/10/03 04:22:35;;;;;;;17.48;11.88;;;12.90;64.50;;;;;;5053514;28;20094;-63
2021/10/03 04:25:00;;;;;;;18.98;10.25;;;12.90;64.60;;;;;;5053944;28;20478;-63
2021/10/03 04:27:26;;;;;;;14.32;9.65;;;12.90;64.60;;;;;;5053690;28;20028;-62
2021/10/03 04:29:52;;;;;;;17.67;10.30;;;12.80;64.60;;;;;;5053884;28;20020;-63
2021/10/03 04:32:18;;;;;;;17.70;11.05;;;12.80;64.60;;;;;;5053367;28;20025;-63
2021/10/03 04:34:43;;;;;;;21.98;12.48;;;12.80;64.90;;;;;;5053695;28;20028;-63
2021/10/03 04:37:10;;;;;;;18.17;10.18;;;12.80;65.00;;;;;;5053595;28;20040;-62
2021/10/03 04:39:36;;;;;;;17.10;10.25;;;12.80;65.00;;;;;;5053200;28;20502;-63
2021/10/03 04:42:03;;;;;;;15.88;10.00;;;12.80;65.20;;;;;;5053868;28;20028;-62
2021/10/03 04:44:29;;;;;;;16.25;9.63;;;12.70;65.00;;;;;;5053207;28;20476;-62
2021/10/03 04:46:55;;;;;;;22.13;10.30;;;12.80;65.10;;;;;;5053343;28;20025;-63
2021/10/03 04:49:21;;;;;;;14.63;9.48;;;12.70;65.00;;;;;;5053340;28;20506;-63
2021/10/03 04:51:47;;;;;;;19.42;10.90;;;12.70;65.00;;;;;;5053152;28;20043;-62
2021/10/03 04:54:13;;;;;;;16.48;10.32;;;12.70;65.10;;;;;;5053147;28;20028;-62
2021/10/03 04:56:39;;;;;;;17.17;11.15;;;12.70;65.20;;;;;;5053218;28;20029;-63
2021/10/03 04:59:05;;;;;;;15.57;10.57;;;12.70;66.10;;;;;;5053126;28;20035;-63
2021/10/03 05:01:31;;;;;;;18.27;10.93;;;12.70;65.50;;;;;;5052991;28;20036;-62
2021/10/03 05:03:56;;;;;;;18.05;11.10;;;12.60;65.50;;;;;;5052819;28;20041;-62
2021/10/03 05:06:22;;;;;;;18.73;11.57;;;12.60;65.70;;;;;;5053065;28;20029;-63
2021/10/03 05:08:48;;;;;;;15.93;9.18;;;12.60;65.70;;;;;;5066329;28;20028;-63
2021/10/03 05:11:14;;;;;;;14.80;9.60;;;12.60;65.70;;;;;;5055599;28;20071;-63
2021/10/03 05:13:40;;;;;;;12.38;8.48;;;12.60;65.60;;;;;;5052879;28;20025;-63
2021/10/03 05:16:05;;;;;;;13.52;8.45;;;12.60;65.50;;;;;;5052719;28;20028;-63
2021/10/03 05:18:36;;;;;;;12.50;8.15;;;12.60;65.50;;;;;;5069324;28;20021;-62
2021/10/03 05:21:02;;;;;;;12.18;8.07;;;12.50;65.50;;;;;;5069074;28;20400;-63
2021/10/03 05:23:28;;;;;;;11.27;7.18;;;12.60;65.50;;;;;;5054291;28;20017;-63
2021/10/03 05:25:54;;;;;;;12.57;8.05;;;12.60;65.50;;;;;;5052188;28;20103;-62
2021/10/03 05:28:20;;;;;;;12.13;8.05;;;12.60;65.60;;;;;;5052593;28;20028;-63
2021/10/03 05:30:46;;;;;;;12.68;7.93;;;12.60;65.60;;;;;;5052589;28;20064;-63
2021/10/03 05:33:11;;;;;;;14.70;8.55;;;12.60;65.70;;;;;;5052484;28;20039;-63
2021/10/03 05:35:37;;;;;;;12.65;8.43;;;12.60;65.80;;;;;;5052603;28;20013;-63
2021/10/03 05:38:03;;;;;;;12.38;8.85;;;12.60;65.90;;;;;;5052353;28;20064;-63
2021/10/03 05:40:30;;;;;;;14.13;8.52;;;12.70;65.90;;;;;;5063502;28;20024;-63
2021/10/03 05:42:56;;;;;;;13.35;8.55;;;12.70;66.00;;;;;;5071875;28;20100;-63
2021/10/03 05:45:22;;;;;;;22.00;11.48;;;12.70;66.20;;;;;;5069687;28;20092;-62
2021/10/03 05:47:47;;;;;;;19.50;12.23;;;12.70;66.50;;;;;;5052470;28;20036;-63
2021/10/03 05:50:15;;;;;;;19.48;11.07;;;12.80;66.80;;;;;;5052489;28;20032;-63
2021/10/03 05:52:41;;;;;;;19.88;12.10;;;12.80;66.80;;;;;;5052291;28;20387;-62
2021/10/03 05:55:07;;;;;;;14.00;10.25;;;12.90;67.00;;;;;;5052187;28;20031;-62
2021/10/03 05:57:33;;;;;;;15.98;10.77;;;13.00;66.90;;;;;;5052030;28;20032;-63
2021/10/03 05:59:58;;;;;;;15.88;10.73;;;13.10;66.90;;;;;;5052236;28;20474;-63
2021/10/03 06:02:24;;;;;;;17.80;11.88;;;13.10;66.90;;;;;;5051910;28;20048;-63
2021/10/03 06:04:50;;;;;;;22.58;13.05;;;13.20;67.00;;;;;;5052028;28;20086;-62
2021/10/03 06:07:16;;;;;;;18.67;11.90;;;13.30;67.20;;;;;;5051904;28;20475;-63
2021/10/03 06:09:42;;;;;;;27.38;13.60;;;13.30;67.20;;;;;;5051982;28;20107;-63
2021/10/03 06:12:08;;;;;;;18.35;11.93;;;13.40;67.10;;;;;;5051900;28;20364;-63
2021/10/03 06:14:34;;;;;;;17.88;11.63;;;13.50;67.10;;;;;;5051626;28;20078;-62
2021/10/03 06:17:00;;;;;;;20.08;11.65;;;13.50;67.00;;;;;;5051456;28;20470;-63
2021/10/03 06:19:26;;;;;;;21.63;12.23;;;13.60;66.90;;;;;;5051487;28;20033;-62
2021/10/03 06:21:52;;;;;;;23.65;13.85;;;13.70;67.60;;;;;;5062018;28;20017;-63
2021/10/03 06:24:18;;;;;;;24.90;14.10;;;13.80;66.90;;;;;;5052552;28;20028;-62
2021/10/03 06:26:47;;;;;;;22.02;12.57;;;13.90;66.80;;;;;;5071539;28;20051;-62
2021/10/03 06:29:14;;;;;;;24.52;12.20;;;13.90;66.60;;;;;;5056321;28;20055;-62
2021/10/03 06:31:40;;;;;;;23.90;14.18;;;14.00;66.50;;;;;;5063591;28;20024;-63
2021/10/03 06:34:05;;;;;;;24.13;13.70;;;14.10;66.50;;;;;;5070913;28;20097;-63
2021/10/03 06:36:31;;;;;;;27.95;13.43;;;14.20;66.40;;;;;;5071311;28;20025;-63
2021/10/03 06:38:57;;;;;;;24.08;12.75;;;14.20;66.30;;;;;;5061412;28;20025;-63
2021/10/03 06:41:23;;;;;;;22.45;12.85;;;14.30;66.20;;;;;;5051160;28;20029;-64
2021/10/03 06:43:48;;;;;;;25.83;13.82;;;14.50;66.20;;;;;;5051235;28;20025;-64
2021/10/03 06:46:14;;;;;;;22.23;13.20;;;14.50;66.10;;;;;;5051163;28;20094;-64
2021/10/03 06:48:42;;;;;;;20.83;12.95;;;14.60;66.00;;;;;;5064014;28;20119;-63
2021/10/03 06:51:08;;;;;;;24.67;13.68;;;14.70;65.80;;;;;;5070924;28;20225;-64
2021/10/03 06:53:34;;;;;;;25.75;13.05;;;14.70;65.70;;;;;;5069033;28;20029;-63
2021/10/03 06:56:01;;;;;;;20.98;12.10;;;14.80;65.60;;;;;;5071163;28;20078;-64
2021/10/03 06:58:27;;;;;;;17.98;11.77;;;14.90;65.50;;;;;;5070546;28;20033;-64
2021/10/03 07:00:53;;;;;;;21.67;12.75;;;15.00;65.40;;;;;;5070985;28;20381;-63
2021/10/03 07:03:19;;;;;;;22.50;12.77;;;15.10;65.30;;;;;;5062994;28;20127;-63
2021/10/03 07:05:45;;;;;;;20.73;12.80;;;15.20;65.10;;;;;;5050788;28;20056;-63
2021/10/03 07:08:12;;;;;;;20.75;12.93;;;15.20;64.90;;;;;;5050898;28;20083;-63
2021/10/03 07:10:41;;;;;;;18.52;11.82;;;15.30;64.70;;;;;;5050629;28;20104;-63
2021/10/03 07:13:06;;;;;;;19.60;12.68;;;15.40;64.60;;;;;;5050855;28;20033;-63
2021/10/03 07:15:33;;;;;;;24.95;13.00;;;15.50;64.40;;;;;;5050572;28;20035;-64
2021/10/03 07:17:59;;;;;;;26.17;13.57;;;15.60;63.90;;;;;;5050467;28;20440;-64
2021/10/03 07:20:25;;;;;;;27.08;14.00;;;15.60;63.70;;;;;;5052837;28;20123;-62
2021/10/03 07:22:51;;;;;;;25.63;14.52;;;15.70;63.50;;;;;;5068827;28;20459;-62
2021/10/03 07:25:17;;;;;;;24.85;14.18;;;15.80;63.40;;;;;;5070766;28;20020;-63
2021/10/03 07:27:42;;;;;;;23.55;14.82;;;15.90;63.00;;;;;;5070397;28;20025;-63
2021/10/03 07:30:08;;;;;;;24.25;14.30;;;16.00;62.70;;;;;;5070532;28;20100;-63
2021/10/03 07:32:34;;;;;;;31.10;16.48;;;16.10;62.50;;;;;;5070289;28;20081;-63
2021/10/03 07:35:01;;;;;;;27.73;14.98;;;16.10;61.90;;;;;;5069292;28;20428;-63
2021/10/03 07:37:26;;;;;;;27.40;14.38;;;16.20;61.90;;;;;;5068938;28;20025;-62
2021/10/03 07:39:52;;;;;;;26.42;14.80;;;16.30;61.60;;;;;;5052078;28;20028;-63
2021/10/03 07:42:18;;;;;;;26.90;14.77;;;16.40;61.30;;;;;;5050400;28;20045;-63
2021/10/03 07:44:44;;;;;;;25.33;14.75;;;16.40;61.00;;;;;;5050502;28;20021;-62
2021/10/03 07:47:10;;;;;;;25.77;15.23;;;16.50;61.70;;;;;;5050659;28;20025;-62
2021/10/03 07:49:35;;;;;;;22.70;13.63;;;16.50;60.20;;;;;;5071412;28;20075;-63
2021/10/03 07:52:02;;;;;;;23.75;13.07;;;16.60;60.20;;;;;;5074103;28;20029;-63
2021/10/03 07:54:27;;;;;;;21.75;13.75;;;16.60;60.10;;;;;;5073700;28;20104;-63
2021/10/03 07:56:53;;;;;;;24.63;13.90;;;16.70;60.00;;;;;;5074814;28;20657;-63
2021/10/03 07:59:19;;;;;;;22.88;13.88;;;16.80;59.90;;;;;;5072641;28;20165;-62
2021/10/03 08:01:45;;;;;;;19.52;13.27;;;16.80;59.70;;;;;;5054479;28;20032;-63
2021/10/03 08:04:10;;;;;;;21.85;14.80;;;16.90;59.50;;;;;;5054017;28;20134;-63
2021/10/03 08:06:36;;;;;;;27.17;14.38;;;17.00;59.10;;;;;;5052572;28;20025;-63
2021/10/03 08:09:03;;;;;;;19.85;13.45;;;17.10;58.90;;;;;;5054100;28;20501;-63
2021/10/03 08:11:29;;;;;;;22.50;14.73;;;17.10;59.00;;;;;;5053957;28;20021;-63
2021/10/03 08:13:55;;;;;;;27.08;15.30;;;17.20;58.60;;;;;;5053862;28;20051;-62
2021/10/03 08:16:21;;;;;;;27.83;15.75;;;17.30;58.20;;;;;;5053939;28;20021;-62
2021/10/03 08:18:47;;;;;;;24.48;14.80;;;17.30;58.20;;;;;;5053673;28;20471;-63
2021/10/03 08:21:15;;;;;;;20.83;13.90;;;17.50;58.20;;;;;;5052488;28;20017;-63
2021/10/03 08:23:41;;;;;;;21.70;13.13;;;17.50;58.50;;;;;;5061899;28;20017;-63
2021/10/03 08:26:07;;;;;;;25.52;14.73;;;17.60;58.10;;;;;;5053612;28;20025;-63
2021/10/03 08:28:33;;;;;;;22.55;13.93;;;17.60;58.00;;;;;;5062054;28;20534;-63
2021/10/03 08:30:59;;;;;;;18.98;13.52;;;17.70;57.60;;;;;;5059299;28;20025;-62
2021/10/03 08:33:25;;;;;;;27.20;16.00;;;17.80;57.80;;;;;;5053508;28;20013;-63
2021/10/03 08:35:50;;;;;;;30.60;15.80;;;17.90;57.30;;;;;;5053721;28;20044;-63
2021/10/03 08:38:16;;;;;;;23.02;15.40;;;17.90;57.40;;;;;;5053737;28;20033;-63
2021/10/03 08:40:42;;;;;;;23.80;14.95;;;18.00;57.30;;;;;;5052302;28;20120;-63
2021/10/03 08:43:08;;;;;;;19.65;13.13;;;18.10;57.30;;;;;;5058359;28;20035;-63
2021/10/03 08:45:43;;;;;;;25.25;15.95;;;18.10;57.20;;;;;;5053509;28;20397;-62
2021/10/03 08:48:09;;;;;;;;;;;18.20;56.70;;;;;;5053732;28;20025;-63
2021/10/03 08:50:35;;;;;;;26.35;16.02;;;18.30;57.60;;;;;;5053535;28;20290;-63
2021/10/03 08:53:01;;;;;;;24.52;15.05;;;18.40;56.30;;;;;;5064846;28;20028;-63
2021/10/03 08:55:27;;;;;;;26.15;17.17;;;18.40;56.00;;;;;;5055493;28;20021;-65
2021/10/03 08:57:52;;;;;;;26.88;15.23;;;18.40;56.00;;;;;;5053386;28;20033;-62
2021/10/03 09:00:21;;;;;;;25.17;15.63;;;18.50;56.10;;;;;;5052971;28;20035;-62
2021/10/03 09:03:01;;;;;;;26.25;16.80;;;18.50;56.10;;;;;;5052415;28;20049;-62
2021/10/03 09:05:35;;;;;;;25.40;16.75;;;18.60;55.80;;;;;;5053196;28;20032;-62
2021/10/03 09:08:06;;;;;;;30.33;19.95;;;18.60;55.70;;;;;;5053244;28;20021;-63
2021/10/03 09:10:53;;;;;;;35.65;26.40;;;18.70;55.50;;;;;;5053457;28;20064;-63
2021/10/03 09:13:30;;;;;;;26.17;17.83;;;18.70;55.30;;;;;;5053809;28;20029;-63
2021/10/03 09:16:29;;;;;;;19.85;14.05;;;18.80;55.20;;;;;;5064253;28;20025;-62
2021/10/03 09:18:56;;;;;;;25.23;12.98;;;18.80;55.30;;;;;;5060874;28;20616;-63
2021/10/03 09:21:31;;;;;;;23.02;13.05;;;19.00;55.40;;;;;;5071110;28;20170;-63
2021/10/03 09:24:11;;;;;;;22.70;13.27;;;19.00;55.20;;;;;;5058877;28;20084;-63
2021/10/03 09:26:38;;;;;;;20.90;13.02;;;19.10;55.00;;;;;;5051191;28;20116;-64
2021/10/03 09:29:39;;;;;;;22.17;13.93;;;19.10;54.80;;;;;;5054637;28;20516;-63
2021/10/03 09:32:16;;;;;;;17.45;12.85;;;19.20;55.00;;;;;;5016865;28;20038;-63
2021/10/03 09:34:52;;;;;;;24.75;16.25;;;19.30;54.60;;;;;;5027192;28;20049;-64
2021/10/03 09:37:29;;;;;;;19.38;12.90;;;19.30;54.30;;;;;;5021968;28;20049;-64
2021/10/03 09:40:08;;;;;;;22.08;13.30;;;19.40;54.40;;;;;;5011221;28;20097;-64
2021/10/03 09:42:35;;;;;;;19.42;13.85;;;19.40;54.60;;;;;;5021521;28;20447;-65
2021/10/03 09:45:11;;;;;;;19.27;13.85;;;19.50;54.70;;;;;;5031016;28;20026;-63
2021/10/03 09:47:42;;;;;;;21.02;13.75;;;19.60;54.70;;;;;;5028637;28;20810;-65
2021/10/03 09:50:10;;;;;;;20.00;14.07;;;19.70;54.60;;;;;;5011289;28;20029;-62
2021/10/03 09:52:40;;;;;;;19.88;13.02;;;19.80;54.60;;;;;;5020929;28;20041;-63
2021/10/03 09:55:09;;;;;;;18.77;12.80;;;19.90;54.20;;;;;;5015717;28;20042;-64
2021/10/03 09:57:37;;;;;;;24.45;15.75;;;20.00;54.30;;;;;;5009849;28;20529;-64
2021/10/03 10:00:03;;;;;;;21.45;14.80;;;20.00;53.40;;;;;;5010413;28;20218;-63
2021/10/03 10:02:30;;;;;;;19.77;14.43;;;20.10;53.20;;;;;;5009668;28;20454;-63
2021/10/03 10:04:56;;;;;;;24.00;15.07;;;20.10;53.50;;;;;;5000967;28;20026;-64
2021/10/03 10:07:22;;;;;;;22.80;15.65;;;20.20;53.90;;;;;;5063366;28;20012;-63
2021/10/03 10:09:48;;;;;;;22.85;15.50;;;20.30;53.80;;;;;;5064110;28;20037;-63
2021/10/03 10:12:21;;;;;;;17.25;12.85;;;20.30;53.40;;;;;;5051419;28;20119;-64
2021/10/03 10:15:01;;;;;;;22.50;12.00;;;20.40;53.30;;;;;;5058342;28;20029;-65
2021/10/03 10:17:41;;;;;;;15.45;10.90;;;20.50;53.00;;;;;;5053612;28;20032;-64
2021/10/03 10:20:26;;;;;;;15.20;11.52;;;20.50;52.50;;;;;;5052282;28;20091;-65
2021/10/03 10:23:19;;;;;;;14.57;11.25;;;20.60;52.50;;;;;;5053336;28;20025;-65
2021/10/03 10:25:51;;;;;;;18.70;13.45;;;20.70;52.50;;;;;;5051487;28;20052;-65
2021/10/03 10:28:33;;;;;;;18.38;14.05;;;20.70;52.30;;;;;;5057988;28;20025;-65
2021/10/03 10:31:07;;;;;;;17.50;13.40;;;20.80;52.00;;;;;;5052984;28;20025;-64
2021/10/03 10:33:51;;;;;;;18.17;12.82;;;20.80;51.70;;;;;;5052316;28;20032;-64
2021/10/03 10:36:32;;;;;;;15.63;12.27;;;20.90;51.60;;;;;;5052218;28;20061;-65
2021/10/03 10:39:07;;;;;;;16.05;11.35;;;21.00;51.50;;;;;;5052155;28;20029;-65
2021/10/03 10:41:37;;;;;;;15.15;11.25;;;21.00;51.80;;;;;;5052082;28;20021;-64
2021/10/03 10:44:28;;;;;;;17.63;13.15;;;21.10;51.60;;;;;;5052130;28;20031;-65
2021/10/03 10:47:16;;;;;;;14.20;10.57;;;21.10;51.20;;;;;;5051898;28;20382;-65
2021/10/03 10:49:45;;;;;;;12.95;10.57;;;21.20;51.20;;;;;;5061964;28;20031;-64
2021/10/03 10:52:32;;;;;;;16.70;12.55;;;21.30;51.00;;;;;;5057344;28;20047;-65
2021/10/03 10:55:08;;;;;;;17.63;13.40;;;21.30;50.90;;;;;;5051686;28;20393;-64
2021/10/03 10:57:49;;;;;;;18.83;13.52;;;21.40;50.50;;;;;;5051909;28;20479;-65
2021/10/03 11:00:24;;;;;;;15.55;12.13;;;21.40;51.00;;;;;;5054284;28;20534;-65
2021/10/03 11:02:58;;;;;;;15.00;11.27;;;21.50;51.00;;;;;;5060032;28;20497;-65
2021/10/03 11:05:43;;;;;;;16.13;11.77;;;21.60;51.00;;;;;;5070283;28;20488;-65
2021/10/03 11:08:14;;;;;;;19.00;13.13;;;21.70;50.60;;;;;;5057504;28;20347;-65
2021/10/03 11:10:59;;;;;;;19.55;13.90;;;21.70;50.70;;;;;;5062720;28;20031;-64
2021/10/03 11:13:47;;;;;;;22.17;15.75;;;21.80;50.70;;;;;;5064003;28;20032;-65
2021/10/03 11:16:28;;;;;;;20.48;14.60;;;21.80;50.60;;;;;;5071769;28;20089;-65
2021/10/03 11:18:55;;;;;;;27.45;18.02;;;21.90;51.00;;;;;;5069180;28;20027;-65
2021/10/03 11:21:31;;;;;;;26.35;16.65;;;21.90;50.90;;;;;;5063936;28;20056;-65
2021/10/03 11:23:59;;;;;;;23.40;16.60;;;22.00;50.80;;;;;;5055171;28;20367;-65
2021/10/03 11:26:26;;;;;;;25.23;16.15;;;22.00;51.10;;;;;;5070908;28;20025;-63
2021/10/03 11:28:59;;;;;;;23.70;16.13;;;22.10;51.20;;;;;;5058334;28;20032;-63
2021/10/03 11:31:47;;;;;;;18.83;14.53;;;22.10;50.90;;;;;;5057039;28;20029;-63
2021/10/03 11:34:28;;;;;;;24.35;13.65;;;22.20;51.00;;;;;;5077117;28;20115;-64
2021/10/03 11:36:55;;;;;;;18.25;13.63;;;22.30;50.40;;;;;;5078404;28;20073;-64
2021/10/03 11:39:48;;;;;;;20.55;15.50;;;22.30;50.40;;;;;;5076650;28;20028;-64
2021/10/03 11:42:35;;;;;;;17.35;13.48;;;22.40;50.10;;;;;;5075882;28;20450;-64
2021/10/03 11:45:17;;;;;;;16.58;13.48;;;22.50;50.00;;;;;;5057687;28;20037;-64
2021/10/03 11:47:53;;;;;;;20.08;13.38;;;22.50;49.50;;;;;;5063167;28;20104;-65
2021/10/03 11:50:26;;;;;;;17.30;13.77;;;22.50;49.20;;;;;;5057885;28;20017;-63
2021/10/03 11:52:55;;;;;;;19.15;14.48;;;22.50;49.10;;;;;;5062141;28;20020;-64
2021/10/03 11:55:33;;;;;;;20.30;15.35;;;22.60;49.20;;;;;;5074681;28;20048;-65
2021/10/03 11:58:03;;;;;;;18.73;13.77;;;22.60;49.20;;;;;;5076124;28;20056;-65
2021/10/03 12:00:28;;;;;;;17.58;12.90;;;22.60;49.00;;;;;;5067283;28;20029;-65
2021/10/03 12:03:03;;;;;;;17.45;13.05;;;22.70;48.60;;;;;;5057932;28;20047;-65
2021/10/03 12:05:29;;;;;;;;;;;22.70;49.30;;;;;;5058584;28;20098;-65
2021/10/03 12:08:16;;;;;;;13.55;10.98;;;22.70;50.00;;;;;;5058004;28;19905;-65
2021/10/03 12:10:46;;;;;;;16.52;11.57;;;22.80;49.10;;;;;;5057975;28;20167;-64
2021/10/03 12:13:15;;;;;;;15.77;11.23;;;22.90;49.10;;;;;;5057681;28;20049;-64
2021/10/03 12:15:47;;;;;;;16.73;12.80;;;23.00;48.40;;;;;;5057531;28;20013;-65
2021/10/03 12:18:43;;;;;;;15.65;11.93;;;23.00;47.90;;;;;;5057559;28;20036;-64
2021/10/03 12:21:17;;;;;;;13.65;10.55;;;23.00;48.50;;;;;;5057879;28;20471;-65
2021/10/03 12:23:45;;;;;;;;;;;23.10;48.00;;;;;;5058186;28;20021;-64
2021/10/03 12:26:29;;;;;;;17.27;10.70;;;23.20;49.30;;;;;;5075987;28;19909;-64
2021/10/03 12:29:07;;;;;;;14.35;10.43;;;23.20;48.00;;;;;;5073626;28;20025;-65
2021/10/03 12:31:34;;;;;;;12.75;9.38;;;23.20;47.90;;;;;;5075899;28;20033;-65
2021/10/03 12:34:01;;;;;;;13.32;10.73;;;23.30;48.30;;;;;;5059291;28;20024;-66
2021/10/03 12:36:27;;;;;;;14.43;11.02;;;23.30;47.20;;;;;;5062807;28;20036;-65
2021/10/03 12:38:53;;;;;;;14.25;10.85;;;23.40;47.60;;;;;;5062821;28;20033;-65
2021/10/03 12:41:18;;;;;;;12.82;10.27;;;23.40;48.00;;;;;;5064510;28;20449;-65